PST,Max TemperatureF,Mean TemperatureF,Min TemperatureF,Max Dew PointF,MeanDew PointF,Min DewpointF,Max Humidity, Mean Humidity, Min Humidity, Max Sea Level PressureIn, Mean Sea Level PressureIn, Min Sea Level PressureIn, Max VisibilityMiles, Mean VisibilityMiles, Min VisibilityMiles, Max Wind SpeedMPH, Mean Wind SpeedMPH, Max Gust SpeedMPH,PrecipitationIn, CloudCover, Events, WindDirDegrees
2013-2-1,32,29,25,27,25,22,93,86,80,30.43,30.21,29.98,10,3,0,10,7,23,0.00,7,Fog-Snow,315
2013-2-2,32,28,24,29,23,20,88,82,72,30.48,30.39,30.08,10,10,10,10,6,,0.76,0,,243
2013-2-3,30,27,24,25,24,21,96,88,69,30.19,30.11,29.98,10,10,10,12,7,20,0.00,6,,249
2013-2-4,30,27,24,27,25,24,100,94,85,30.08,29.99,29.91,10,5,0,12,7,22,0.00,8,Fog-Snow,231
2013-2-5,34,29,24,29,25,23,100,96,73,29.97,29.81,29.69,10,4,0,12,6,25,0.17,8,Fog-Rain-Snow,238
2013-2-6,26,24,21,25,23,21,100,96,86,30.10,29.93,29.75,10,2,0,13,6,30,0.00,8,Fog-Snow,202
2013-2-7,26,24,21,25,23,19,100,96,89,30.01,29.88,29.82,10,4,0,9,4,17,0.00,8,Fog-Snow,166
2013-2-8,28,24,21,25,21,17,100,88,80,30.04,29.94,29.86,10,1,0,6,2,,0.02,8,Fog-Rain-Snow,334
2013-2-9,24,22,21,20,19,17,89,85,77,30.14,29.95,29.84,10,1,0,8,4,,0.00,7,Fog-Rain-Snow,349
2013-2-10,26,22,19,23,19,16,100,91,82,30.22,30.10,30.01,10,4,0,7,2,,0.14,7,Fog-Snow,324
2013-2-11,26,22,19,21,19,16,89,84,78,30.19,30.08,29.98,1,0,0,7,4,,0.00,,Fog,318
2013-2-12,30,27,24,27,23,21,93,86,80,30.24,30.13,30.03,10,1,0,15,7,33,0.00,8,Fog-Rain-Snow,257
2013-2-13,32,26,21,27,25,19,93,87,79,30.31,30.09,29.98,10,4,0,17,9,37,0.00,8,Fog-Snow,299
2013-2-14,28,24,19,23,21,18,96,89,80,30.51,30.34,30.19,10,7,0,10,5,,0.00,7,Fog,318
2013-2-15,30,27,24,28,24,21,93,89,85,30.53,30.41,30.17,10,6,1,8,5,,0.07,6,,270
2013-2-16,34,28,21,30,26,21,100,94,81,30.28,29.90,29.78,10,4,0,12,8,26,0.15,7,Fog-Rain-Snow,256
2013-2-17,25,23,21,22,20,19,100,88,80,30.09,29.90,29.78,10,3,0,10,6,20,0.00,8,Fog-Snow,311
2013-2-18,27,23,19,22,19,16,93,86,78,30.08,29.91,29.75,10,6,0,8,4,,0.00,7,Fog,166
2013-2-19,24,22,19,23,21,16,100,92,81,29.81,29.64,29.56,10,2,0,7,4,,0.00,8,Fog-Snow,141
2013-2-20,23,18,14,20,17,10,100,89,81,29.99,29.80,29.70,10,5,0,8,3,,0.00,8,Fog-Snow,292
2013-2-21,24,19,15,20,17,10,100,93,80,30.04,29.87,29.78,10,2,0,8,5,22,0.36,8,Fog-Rain-Snow,226
2013-2-22,27,25,23,23,21,19,88,84,80,29.96,29.74,29.52,6,1,0,18,7,36,0.57,8,Fog-Snow,221
2013-2-23,24,20,17,19,17,14,93,86,80,30.20,29.77,29.54,10,3,0,10,7,29,0.07,8,Fog-Snow,272
2013-2-24,24,21,18,18,17,14,88,85,74,30.29,30.13,29.95,10,4,0,8,5,,0.02,8,Fog-Snow,227
2013-2-25,26,24,21,21,19,18,93,86,80,30.07,29.85,29.76,10,2,0,13,7,26,0.75,8,Fog-Snow,264
2013-2-26,24,22,19,19,17,14,93,84,74,30.31,30.13,29.92,10,3,0,8,3,,0.05,8,Fog-Snow,217
2013-2-27,26,22,19,23,19,15,96,85,74,30.31,30.18,30.10,10,6,0,12,6,21,0.03,8,Fog-Snow,218
2013-2-28,30,26,23,30,25,21,100,93,86,30.36,30.21,30.12,10,1,0,9,4,,0.07,8,Fog-Snow,214